sensor_id;sensor_type;location;lat;lon;timestamp;temperature;humidity
2873;DHT22;1444;49.166;7.312;2023-01-28T00:01:51;5.00;99.90
2873;DHT22;1444;49.166;7.312;2023-01-28T00:04:19;5.10;99.90
2873;DHT22;1444;49.166;7.312;2023-01-28T00:06:45;5.10;99.90
2873;DHT22;1444;49.166;7.312;2023-01-28T00:16:33;4.80;99.90
2873;DHT22;1444;49.166;7.312;2023-01-28T00:19:00;4.80;99.90
2873;DHT22;1444;49.166;7.312;2023-01-28T00:21:28;4.90;99.90
2873;DHT22;1444;49.166;7.312;2023-01-28T00:23:55;4.80;99.90
2873;DHT22;1444;49.166;7.312;2023-01-28T00:26:23;4.80;99.90
2873;DHT22;1444;49.166;7.312;2023-01-28T00:28:50;4.30;99.90
2873;DHT22;1444;49.166;7.312;2023-01-28T00:31:19;4.70;99.90
2873;DHT22;1444;49.166;7.312;2023-01-28T00:33:47;4.70;99.90
2873;DHT22;1444;49.166;7.312;2023-01-28T00:36:15;4.70;99.90
2873;DHT22;1444;49.166;7.312;2023-01-28T00:38:48;4.60;99.90
2873;DHT22;1444;49.166;7.312;2023-01-28T00:41:17;4.60;99.90
2873;DHT22;1444;49.166;7.312;2023-01-28T00:43:47;4.60;99.90
2873;DHT22;1444;49.166;7.312;2023-01-28T00:46:14;4.60;99.90
2873;DHT22;1444;49.166;7.312;2023-01-28T00:48:42;4.50;99.90
2873;DHT22;1444;49.166;7.312;2023-01-28T00:51:10;4.50;99.90
2873;DHT22;1444;49.166;7.312;2023-01-28T00:53:38;4.50;99.90
2873;DHT22;1444;49.166;7.312;2023-01-28T00:58:34;4.50;99.90
2873;DHT22;1444;49.166;7.312;2023-01-28T01:01:06;4.50;99.90
2873;DHT22;1444;49.166;7.312;2023-01-28T01:03:33;4.50;99.90
2873;DHT22;1444;49.166;7.312;2023-01-28T01:10:59;4.60;99.90
2873;DHT22;1444;49.166;7.312;2023-01-28T01:13:27;4.60;99.90
2873;DHT22;1444;49.166;7.312;2023-01-28T01:16:01;7.30;99.90
2873;DHT22;1444;49.166;7.312;2023-01-28T01:20:55;4.60;99.90
2873;DHT22;1444;49.166;7.312;2023-01-28T01:30:46;4.60;99.90
2873;DHT22;1444;49.166;7.312;2023-01-28T01:40:34;4.70;99.90
2873;DHT22;1444;49.166;7.312;2023-01-28T01:43:01;4.60;99.90
2873;DHT22;1444;49.166;7.312;2023-01-28T01:45:28;4.70;99.90
2873;DHT22;1444;49.166;7.312;2023-01-28T01:48:01;4.70;99.90
2873;DHT22;1444;49.166;7.312;2023-01-28T01:53:02;4.60;99.90
2873;DHT22;1444;49.166;7.312;2023-01-28T01:55:33;4.50;99.90
2873;DHT22;1444;49.166;7.312;2023-01-28T01:58:03;4.60;99.90
2873;DHT22;1444;49.166;7.312;2023-01-28T02:00:31;4.60;99.90
2873;DHT22;1444;49.166;7.312;2023-01-28T02:02:59;4.60;99.90
2873;DHT22;1444;49.166;7.312;2023-01-28T02:05:26;4.60;99.90
2873;DHT22;1444;49.166;7.312;2023-01-28T02:07:56;4.50;99.90
2873;DHT22;1444;49.166;7.312;2023-01-28T02:10:44;4.60;99.90
2873;DHT22;1444;49.166;7.312;2023-01-28T02:13:11;4.60;99.90
2873;DHT22;1444;49.166;7.312;2023-01-28T02:15:39;4.60;99.90
2873;DHT22;1444;49.166;7.312;2023-01-28T02:18:08;4.50;99.90
2873;DHT22;1444;49.166;7.312;2023-01-28T02:23:26;4.50;99.90
2873;DHT22;1444;49.166;7.312;2023-01-28T02:26:16;4.50;99.90
2873;DHT22;1444;49.166;7.312;2023-01-28T02:28:49;4.50;99.90
2873;DHT22;1444;49.166;7.312;2023-01-28T02:31:20;4.50;99.90
2873;DHT22;1444;49.166;7.312;2023-01-28T02:38:52;4.50;99.90
2873;DHT22;1444;49.166;7.312;2023-01-28T02:41:23;4.50;99.90
2873;DHT22;1444;49.166;7.312;2023-01-28T02:43:52;4.50;99.90
2873;DHT22;1444;49.166;7.312;2023-01-28T02:46:21;4.40;99.90
2873;DHT22;1444;49.166;7.312;2023-01-28T02:54:26;4.40;99.90
2873;DHT22;1444;49.166;7.312;2023-01-28T02:57:06;4.40;99.90
2873;DHT22;1444;49.166;7.312;2023-01-28T02:59:40;4.20;99.90
2873;DHT22;1444;49.166;7.312;2023-01-28T03:04:42;4.30;99.90
2873;DHT22;1444;49.166;7.312;2023-01-28T03:07:12;4.40;99.90
2873;DHT22;1444;49.166;7.312;2023-01-28T03:12:10;4.40;99.90
2873;DHT22;1444;49.166;7.312;2023-01-28T03:15:00;4.40;99.90
2873;DHT22;1444;49.166;7.312;2023-01-28T03:17:47;4.40;99.90
2873;DHT22;1444;49.166;7.312;2023-01-28T03:20:36;4.40;99.90
2873;DHT22;1444;49.166;7.312;2023-01-28T03:23:26;4.50;99.90
2873;DHT22;1444;49.166;7.312;2023-01-28T03:26:14;4.40;99.90
2873;DHT22;1444;49.166;7.312;2023-01-28T03:34:35;4.40;99.90
2873;DHT22;1444;49.166;7.312;2023-01-28T03:37:19;4.50;99.90
2873;DHT22;1444;49.166;7.312;2023-01-28T03:39:47;4.50;99.90
2873;DHT22;1444;49.166;7.312;2023-01-28T03:44:43;4.40;99.90
2873;DHT22;1444;49.166;7.312;2023-01-28T03:47:21;4.40;99.90
2873;DHT22;1444;49.166;7.312;2023-01-28T03:49:51;4.40;99.90
2873;DHT22;1444;49.166;7.312;2023-01-28T03:57:13;4.40;99.90
2873;DHT22;1444;49.166;7.312;2023-01-28T03:59:40;4.50;99.90
2873;DHT22;1444;49.166;7.312;2023-01-28T04:02:08;4.40;99.90
2873;DHT22;1444;49.166;7.312;2023-01-28T04:04:37;4.40;99.90
2873;DHT22;1444;49.166;7.312;2023-01-28T04:07:05;4.40;99.90
2873;DHT22;1444;49.166;7.312;2023-01-28T04:09:33;4.40;99.90
2873;DHT22;1444;49.166;7.312;2023-01-28T04:11:59;4.40;99.90
2873;DHT22;1444;49.166;7.312;2023-01-28T04:16:53;4.30;99.90
2873;DHT22;1444;49.166;7.312;2023-01-28T04:19:20;4.30;99.90
2873;DHT22;1444;49.166;7.312;2023-01-28T04:21:49;4.30;99.90
2873;DHT22;1444;49.166;7.312;2023-01-28T04:24:19;4.30;99.90
2873;DHT22;1444;49.166;7.312;2023-01-28T04:26:45;4.30;99.90
2873;DHT22;1444;49.166;7.312;2023-01-28T04:29:12;4.30;99.90
2873;DHT22;1444;49.166;7.312;2023-01-28T04:34:06;4.30;99.90
2873;DHT22;1444;49.166;7.312;2023-01-28T04:36:33;4.30;99.90
2873;DHT22;1444;49.166;7.312;2023-01-28T04:41:28;4.30;99.90
2873;DHT22;1444;49.166;7.312;2023-01-28T04:43:55;4.30;99.90
2873;DHT22;1444;49.166;7.312;2023-01-28T04:46:22;4.30;99.90
2873;DHT22;1444;49.166;7.312;2023-01-28T04:48:48;4.30;99.90
2873;DHT22;1444;49.166;7.312;2023-01-28T04:51:15;4.30;99.90
2873;DHT22;1444;49.166;7.312;2023-01-28T04:53:42;4.30;99.90
2873;DHT22;1444;49.166;7.312;2023-01-28T04:56:10;4.30;99.90
2873;DHT22;1444;49.166;7.312;2023-01-28T05:03:30;4.30;99.90
2873;DHT22;1444;49.166;7.312;2023-01-28T05:05:57;4.40;99.90
2873;DHT22;1444;49.166;7.312;2023-01-28T05:08:24;4.40;99.90
2873;DHT22;1444;49.166;7.312;2023-01-28T05:10:50;7.10;99.90
2873;DHT22;1444;49.166;7.312;2023-01-28T05:13:18;4.40;99.90
2873;DHT22;1444;49.166;7.312;2023-01-28T05:15:50;4.40;99.90
2873;DHT22;1444;49.166;7.312;2023-01-28T05:18:17;4.40;99.90
2873;DHT22;1444;49.166;7.312;2023-01-28T05:40:22;4.30;99.90
2873;DHT22;1444;49.166;7.312;2023-01-28T05:42:48;4.30;99.90
2873;DHT22;1444;49.166;7.312;2023-01-28T05:45:15;4.30;99.90
2873;DHT22;1444;49.166;7.312;2023-01-28T05:47:43;4.40;99.90
2873;DHT22;1444;49.166;7.312;2023-01-28T05:50:12;4.30;99.90
2873;DHT22;1444;49.166;7.312;2023-01-28T05:52:39;4.30;99.90
2873;DHT22;1444;49.166;7.312;2023-01-28T05:55:06;4.30;99.90
2873;DHT22;1444;49.166;7.312;2023-01-28T05:57:33;4.30;99.90
2873;DHT22;1444;49.166;7.312;2023-01-28T06:04:55;4.20;99.90
2873;DHT22;1444;49.166;7.312;2023-01-28T06:07:22;4.20;99.90
2873;DHT22;1444;49.166;7.312;2023-01-28T06:09:49;4.10;99.90
2873;DHT22;1444;49.166;7.312;2023-01-28T06:12:16;4.10;99.90
2873;DHT22;1444;49.166;7.312;2023-01-28T06:14:42;4.10;99.90
2873;DHT22;1444;49.166;7.312;2023-01-28T06:17:09;4.10;99.90
2873;DHT22;1444;49.166;7.312;2023-01-28T06:19:36;4.10;99.90
2873;DHT22;1444;49.166;7.312;2023-01-28T06:22:04;4.00;99.90
2873;DHT22;1444;49.166;7.312;2023-01-28T06:29:25;4.10;99.90
2873;DHT22;1444;49.166;7.312;2023-01-28T06:31:52;4.00;99.90
2873;DHT22;1444;49.166;7.312;2023-01-28T06:34:19;4.10;99.90
2873;DHT22;1444;49.166;7.312;2023-01-28T06:39:14;4.00;99.90
2873;DHT22;1444;49.166;7.312;2023-01-28T06:41:40;4.10;99.90
2873;DHT22;1444;49.166;7.312;2023-01-28T06:44:07;4.10;99.90
2873;DHT22;1444;49.166;7.312;2023-01-28T06:46:34;4.10;99.90
2873;DHT22;1444;49.166;7.312;2023-01-28T06:49:01;4.10;99.90
2873;DHT22;1444;49.166;7.312;2023-01-28T06:56:23;4.10;99.90
2873;DHT22;1444;49.166;7.312;2023-01-28T06:58:50;4.10;99.90
2873;DHT22;1444;49.166;7.312;2023-01-28T07:03:44;4.00;99.90
2873;DHT22;1444;49.166;7.312;2023-01-28T07:06:10;4.00;99.90
2873;DHT22;1444;49.166;7.312;2023-01-28T07:08:37;4.00;99.90
2873;DHT22;1444;49.166;7.312;2023-01-28T07:13:32;4.00;99.90
2873;DHT22;1444;49.166;7.312;2023-01-28T07:20:53;4.00;99.90
2873;DHT22;1444;49.166;7.312;2023-01-28T07:25:48;4.00;99.90
2873;DHT22;1444;49.166;7.312;2023-01-28T07:28:14;4.00;99.90
2873;DHT22;1444;49.166;7.312;2023-01-28T07:30:47;1.30;98.90
2873;DHT22;1444;49.166;7.312;2023-01-28T07:33:14;4.00;99.90
2873;DHT22;1444;49.166;7.312;2023-01-28T07:35:41;3.90;99.90
2873;DHT22;1444;49.166;7.312;2023-01-28T07:38:08;3.90;99.90
2873;DHT22;1444;49.166;7.312;2023-01-28T07:40:34;3.90;99.90
2873;DHT22;1444;49.166;7.312;2023-01-28T07:43:01;3.90;99.90
2873;DHT22;1444;49.166;7.312;2023-01-28T07:47:59;4.00;99.90
2873;DHT22;1444;49.166;7.312;2023-01-28T07:52:54;4.00;99.90
2873;DHT22;1444;49.166;7.312;2023-01-28T07:55:21;4.10;99.90
2873;DHT22;1444;49.166;7.312;2023-01-28T08:02:43;4.00;99.90
2873;DHT22;1444;49.166;7.312;2023-01-28T08:05:15;4.10;99.90
2873;DHT22;1444;49.166;7.312;2023-01-28T08:07:41;4.00;99.90
2873;DHT22;1444;49.166;7.312;2023-01-28T08:10:10;4.10;99.90
2873;DHT22;1444;49.166;7.312;2023-01-28T08:12:36;4.00;99.90
2873;DHT22;1444;49.166;7.312;2023-01-28T08:15:04;4.10;99.90
2873;DHT22;1444;49.166;7.312;2023-01-28T08:17:31;4.20;99.90
2873;DHT22;1444;49.166;7.312;2023-01-28T08:22:27;4.10;99.90
2873;DHT22;1444;49.166;7.312;2023-01-28T08:24:53;4.20;99.90
2873;DHT22;1444;49.166;7.312;2023-01-28T08:32:15;4.20;99.90
2873;DHT22;1444;49.166;7.312;2023-01-28T08:34:41;4.30;99.90
2873;DHT22;1444;49.166;7.312;2023-01-28T08:37:08;4.20;99.80
2873;DHT22;1444;49.166;7.312;2023-01-28T08:39:36;4.20;99.90
2873;DHT22;1444;49.166;7.312;2023-01-28T08:42:04;4.30;99.90
2873;DHT22;1444;49.166;7.312;2023-01-28T08:44:31;4.30;99.90
2873;DHT22;1444;49.166;7.312;2023-01-28T08:46:58;4.20;99.80
2873;DHT22;1444;49.166;7.312;2023-01-28T08:51:52;4.20;99.90
2873;DHT22;1444;49.166;7.312;2023-01-28T08:54:19;4.20;99.70
2873;DHT22;1444;49.166;7.312;2023-01-28T08:56:48;4.30;99.90
2873;DHT22;1444;49.166;7.312;2023-01-28T08:59:16;4.30;99.90
2873;DHT22;1444;49.166;7.312;2023-01-28T09:01:42;4.30;99.70
2873;DHT22;1444;49.166;7.312;2023-01-28T09:04:09;4.40;99.90
2873;DHT22;1444;49.166;7.312;2023-01-28T09:06:36;4.40;99.60
2873;DHT22;1444;49.166;7.312;2023-01-28T09:09:03;4.40;99.70
2873;DHT22;1444;49.166;7.312;2023-01-28T09:13:58;4.50;99.40
2873;DHT22;1444;49.166;7.312;2023-01-28T09:16:25;4.50;99.50
2873;DHT22;1444;49.166;7.312;2023-01-28T09:23:46;4.60;99.60
2873;DHT22;1444;49.166;7.312;2023-01-28T09:26:13;4.60;99.30
2873;DHT22;1444;49.166;7.312;2023-01-28T09:28:40;4.60;99.50
2873;DHT22;1444;49.166;7.312;2023-01-28T09:41:02;4.70;98.90
2873;DHT22;1444;49.166;7.312;2023-01-28T09:43:53;4.90;99.30
2873;DHT22;1444;49.166;7.312;2023-01-28T09:46:30;4.80;99.10
2873;DHT22;1444;49.166;7.312;2023-01-28T09:51:32;4.80;99.20
2873;DHT22;1444;49.166;7.312;2023-01-28T09:59:04;4.90;99.20
2873;DHT22;1444;49.166;7.312;2023-01-28T10:01:38;4.90;99.10
2873;DHT22;1444;49.166;7.312;2023-01-28T10:04:18;4.90;99.10
2873;DHT22;1444;49.166;7.312;2023-01-28T10:06:53;4.80;98.80
2873;DHT22;1444;49.166;7.312;2023-01-28T10:09:32;4.90;99.10
2873;DHT22;1444;49.166;7.312;2023-01-28T10:12:10;4.90;99.10
2873;DHT22;1444;49.166;7.312;2023-01-28T10:14:48;4.90;99.20
2873;DHT22;1444;49.166;7.312;2023-01-28T10:17:24;4.90;99.10
2873;DHT22;1444;49.166;7.312;2023-01-28T10:22:27;4.90;99.10
2873;DHT22;1444;49.166;7.312;2023-01-28T10:29:55;4.90;99.20
2873;DHT22;1444;49.166;7.312;2023-01-28T10:37:24;4.80;98.90
2873;DHT22;1444;49.166;7.312;2023-01-28T10:39:52;4.70;98.80
2873;DHT22;1444;49.166;7.312;2023-01-28T10:42:28;4.80;99.10
2873;DHT22;1444;49.166;7.312;2023-01-28T10:47:30;4.70;99.00
2873;DHT22;1444;49.166;7.312;2023-01-28T10:49:59;4.70;98.80
2873;DHT22;1444;49.166;7.312;2023-01-28T10:52:26;4.70;99.00
2873;DHT22;1444;49.166;7.312;2023-01-28T10:55:00;4.70;98.90
2873;DHT22;1444;49.166;7.312;2023-01-28T10:57:27;6.30;99.70
2873;DHT22;1444;49.166;7.312;2023-01-28T10:59:53;4.70;99.00
2873;DHT22;1444;49.166;7.312;2023-01-28T11:05:02;4.70;99.10
2873;DHT22;1444;49.166;7.312;2023-01-28T11:09:57;4.80;99.00
2873;DHT22;1444;49.166;7.312;2023-01-28T11:14:54;4.70;98.80
2873;DHT22;1444;49.166;7.312;2023-01-28T11:17:24;4.70;99.20
2873;DHT22;1444;49.166;7.312;2023-01-28T11:22:25;4.80;98.90
2873;DHT22;1444;49.166;7.312;2023-01-28T11:25:27;4.90;99.10
2873;DHT22;1444;49.166;7.312;2023-01-28T11:27:55;4.90;98.80
2873;DHT22;1444;49.166;7.312;2023-01-28T11:30:24;5.00;98.90
2873;DHT22;1444;49.166;7.312;2023-01-28T11:32:59;4.90;98.30
2873;DHT22;1444;49.166;7.312;2023-01-28T11:37:59;5.00;98.60
2873;DHT22;1444;49.166;7.312;2023-01-28T11:40:27;5.10;98.70
2873;DHT22;1444;49.166;7.312;2023-01-28T11:42:55;5.00;98.30
2873;DHT22;1444;49.166;7.312;2023-01-28T11:50:41;4.90;98.60
2873;DHT22;1444;49.166;7.312;2023-01-28T11:53:36;4.90;98.30
2873;DHT22;1444;49.166;7.312;2023-01-28T11:56:16;5.00;98.50
2873;DHT22;1444;49.166;7.312;2023-01-28T12:01:23;4.90;98.30
2873;DHT22;1444;49.166;7.312;2023-01-28T12:04:19;4.90;98.20
2873;DHT22;1444;49.166;7.312;2023-01-28T12:06:57;4.90;98.40
2873;DHT22;1444;49.166;7.312;2023-01-28T12:09:34;4.90;98.60
2873;DHT22;1444;49.166;7.312;2023-01-28T12:12:16;4.90;98.40
2873;DHT22;1444;49.166;7.312;2023-01-28T12:15:18;4.90;98.30
2873;DHT22;1444;49.166;7.312;2023-01-28T12:20:28;5.00;98.50
2873;DHT22;1444;49.166;7.312;2023-01-28T12:23:19;5.10;98.40
2873;DHT22;1444;49.166;7.312;2023-01-28T12:26:02;5.20;98.30
2873;DHT22;1444;49.166;7.312;2023-01-28T12:31:13;5.00;97.70
2873;DHT22;1444;49.166;7.312;2023-01-28T12:33:58;5.10;98.10
2873;DHT22;1444;49.166;7.312;2023-01-28T12:36:36;5.00;97.80
2873;DHT22;1444;49.166;7.312;2023-01-28T12:41:43;5.00;97.80
2873;DHT22;1444;49.166;7.312;2023-01-28T12:44:14;5.10;98.00
2873;DHT22;1444;49.166;7.312;2023-01-28T12:49:15;5.00;97.90
2873;DHT22;1444;49.166;7.312;2023-01-28T12:51:58;5.10;98.00
2873;DHT22;1444;49.166;7.312;2023-01-28T12:54:32;5.00;97.80
2873;DHT22;1444;49.166;7.312;2023-01-28T12:57:02;5.00;97.80
2873;DHT22;1444;49.166;7.312;2023-01-28T13:02:16;4.90;97.90
2873;DHT22;1444;49.166;7.312;2023-01-28T13:04:51;4.90;97.80
2873;DHT22;1444;49.166;7.312;2023-01-28T13:07:23;4.90;97.90
2873;DHT22;1444;49.166;7.312;2023-01-28T13:09:59;5.00;97.90
2873;DHT22;1444;49.166;7.312;2023-01-28T13:14:58;4.90;97.70
2873;DHT22;1444;49.166;7.312;2023-01-28T13:17:28;4.90;97.80
2873;DHT22;1444;49.166;7.312;2023-01-28T13:19:56;4.90;97.70
2873;DHT22;1444;49.166;7.312;2023-01-28T13:22:28;4.80;97.80
2873;DHT22;1444;49.166;7.312;2023-01-28T13:24:56;4.90;97.50
2873;DHT22;1444;49.166;7.312;2023-01-28T13:27:26;4.90;97.60
2873;DHT22;1444;49.166;7.312;2023-01-28T13:30:03;4.90;97.70
2873;DHT22;1444;49.166;7.312;2023-01-28T13:32:36;4.80;97.70
2873;DHT22;1444;49.166;7.312;2023-01-28T13:35:05;4.80;97.80
2873;DHT22;1444;49.166;7.312;2023-01-28T13:37:34;4.80;97.60
2873;DHT22;1444;49.166;7.312;2023-01-28T13:40:06;4.70;97.50
2873;DHT22;1444;49.166;7.312;2023-01-28T13:42:35;4.70;97.70
2873;DHT22;1444;49.166;7.312;2023-01-28T13:45:20;4.70;97.60
2873;DHT22;1444;49.166;7.312;2023-01-28T13:47:50;4.70;97.70
2873;DHT22;1444;49.166;7.312;2023-01-28T13:50:20;4.70;97.90
2873;DHT22;1444;49.166;7.312;2023-01-28T13:55:20;4.60;97.70
2873;DHT22;1444;49.166;7.312;2023-01-28T13:58:16;4.60;97.80
2873;DHT22;1444;49.166;7.312;2023-01-28T14:07:04;4.50;97.80
2873;DHT22;1444;49.166;7.312;2023-01-28T14:09:58;4.50;97.90
2873;DHT22;1444;49.166;7.312;2023-01-28T14:12:47;4.60;97.90
2873;DHT22;1444;49.166;7.312;2023-01-28T14:15:47;4.70;97.80
2873;DHT22;1444;49.166;7.312;2023-01-28T14:18:24;4.70;97.70
2873;DHT22;1444;49.166;7.312;2023-01-28T14:28:32;4.50;97.40
2873;DHT22;1444;49.166;7.312;2023-01-28T14:31:04;4.50;97.20
2873;DHT22;1444;49.166;7.312;2023-01-28T14:33:35;4.40;97.00
2873;DHT22;1444;49.166;7.312;2023-01-28T14:36:03;4.50;97.40
2873;DHT22;1444;49.166;7.312;2023-01-28T14:38:35;4.50;97.20
2873;DHT22;1444;49.166;7.312;2023-01-28T14:41:04;4.40;97.20
2873;DHT22;1444;49.166;7.312;2023-01-28T14:43:31;4.40;97.30
2873;DHT22;1444;49.166;7.312;2023-01-28T14:46:07;4.40;97.40
2873;DHT22;1444;49.166;7.312;2023-01-28T14:51:30;4.30;97.00
2873;DHT22;1444;49.166;7.312;2023-01-28T14:54:14;4.30;97.50
2873;DHT22;1444;49.166;7.312;2023-01-28T14:56:54;4.30;97.20
2873;DHT22;1444;49.166;7.312;2023-01-28T14:59:28;4.30;97.20
2873;DHT22;1444;49.166;7.312;2023-01-28T15:01:58;2.40;96.60
2873;DHT22;1444;49.166;7.312;2023-01-28T15:04:28;4.30;97.40
2873;DHT22;1444;49.166;7.312;2023-01-28T15:06:55;4.30;97.20
2873;DHT22;1444;49.166;7.312;2023-01-28T15:09:23;4.30;97.00
2873;DHT22;1444;49.166;7.312;2023-01-28T15:14:24;4.30;97.10
2873;DHT22;1444;49.166;7.312;2023-01-28T15:19:23;4.20;97.30
2873;DHT22;1444;49.166;7.312;2023-01-28T15:21:53;4.20;97.10
2873;DHT22;1444;49.166;7.312;2023-01-28T15:24:20;4.10;97.00
2873;DHT22;1444;49.166;7.312;2023-01-28T15:29:24;4.10;97.30
2873;DHT22;1444;49.166;7.312;2023-01-28T15:36:48;4.00;96.80
2873;DHT22;1444;49.166;7.312;2023-01-28T15:39:17;4.00;96.90
2873;DHT22;1444;49.166;7.312;2023-01-28T15:41:46;4.00;96.90
2873;DHT22;1444;49.166;7.312;2023-01-28T15:49:13;4.00;96.90
2873;DHT22;1444;49.166;7.312;2023-01-28T15:51:47;3.90;96.90
2873;DHT22;1444;49.166;7.312;2023-01-28T15:54:17;3.90;96.90
2873;DHT22;1444;49.166;7.312;2023-01-28T15:56:44;3.90;97.10
2873;DHT22;1444;49.166;7.312;2023-01-28T16:01:45;3.80;97.00
2873;DHT22;1444;49.166;7.312;2023-01-28T16:04:22;3.90;97.30
2873;DHT22;1444;49.166;7.312;2023-01-28T16:06:50;3.90;97.20
2873;DHT22;1444;49.166;7.312;2023-01-28T16:09:23;4.00;97.40
2873;DHT22;1444;49.166;7.312;2023-01-28T16:11:51;4.00;97.10
2873;DHT22;1444;49.166;7.312;2023-01-28T16:14:24;4.10;97.10
2873;DHT22;1444;49.166;7.312;2023-01-28T16:16:52;4.00;97.10
2873;DHT22;1444;49.166;7.312;2023-01-28T16:19:29;4.10;97.20
2873;DHT22;1444;49.166;7.312;2023-01-28T16:21:57;4.00;96.90
2873;DHT22;1444;49.166;7.312;2023-01-28T16:24:26;4.00;97.20
2873;DHT22;1444;49.166;7.312;2023-01-28T16:26:55;4.00;96.80
2873;DHT22;1444;49.166;7.312;2023-01-28T16:29:24;3.90;96.90
2873;DHT22;1444;49.166;7.312;2023-01-28T16:31:50;4.00;97.00
2873;DHT22;1444;49.166;7.312;2023-01-28T16:34:17;4.00;97.10
2873;DHT22;1444;49.166;7.312;2023-01-28T16:36:44;4.00;97.10
2873;DHT22;1444;49.166;7.312;2023-01-28T16:39:10;4.00;97.00
2873;DHT22;1444;49.166;7.312;2023-01-28T16:41:40;4.00;97.10
2873;DHT22;1444;49.166;7.312;2023-01-28T16:44:11;4.00;97.10
2873;DHT22;1444;49.166;7.312;2023-01-28T16:46:38;4.10;97.10
2873;DHT22;1444;49.166;7.312;2023-01-28T16:49:05;4.00;97.00
2873;DHT22;1444;49.166;7.312;2023-01-28T16:51:32;4.00;97.00
2873;DHT22;1444;49.166;7.312;2023-01-28T16:54:00;4.00;96.90
2873;DHT22;1444;49.166;7.312;2023-01-28T16:56:28;4.10;97.10
2873;DHT22;1444;49.166;7.312;2023-01-28T16:58:56;4.00;97.10
2873;DHT22;1444;49.166;7.312;2023-01-28T17:01:23;4.10;97.10
2873;DHT22;1444;49.166;7.312;2023-01-28T17:03:50;4.00;96.90
2873;DHT22;1444;49.166;7.312;2023-01-28T17:06:18;4.00;96.80
2873;DHT22;1444;49.166;7.312;2023-01-28T17:08:45;4.00;97.00
2873;DHT22;1444;49.166;7.312;2023-01-28T17:13:39;4.00;96.90
2873;DHT22;1444;49.166;7.312;2023-01-28T17:30:56;3.80;96.90
2873;DHT22;1444;49.166;7.312;2023-01-28T17:35:51;3.70;97.00
2873;DHT22;1444;49.166;7.312;2023-01-28T17:38:18;3.70;97.10
2873;DHT22;1444;49.166;7.312;2023-01-28T17:43:12;3.70;97.50
2873;DHT22;1444;49.166;7.312;2023-01-28T17:45:40;3.70;97.20
2873;DHT22;1444;49.166;7.312;2023-01-28T17:48:06;3.70;97.20
2873;DHT22;1444;49.166;7.312;2023-01-28T17:50:37;3.70;96.80
2873;DHT22;1444;49.166;7.312;2023-01-28T17:55:33;3.80;97.20
2873;DHT22;1444;49.166;7.312;2023-01-28T17:58:00;3.80;97.40
2873;DHT22;1444;49.166;7.312;2023-01-28T18:00:27;3.80;97.00
2873;DHT22;1444;49.166;7.312;2023-01-28T18:02:54;3.80;97.10
2873;DHT22;1444;49.166;7.312;2023-01-28T18:05:20;3.80;97.00
2873;DHT22;1444;49.166;7.312;2023-01-28T18:07:48;3.80;97.00
2873;DHT22;1444;49.166;7.312;2023-01-28T18:15:11;3.80;96.70
2873;DHT22;1444;49.166;7.312;2023-01-28T18:17:37;3.80;96.60
2873;DHT22;1444;49.166;7.312;2023-01-28T18:20:05;3.80;96.80
2873;DHT22;1444;49.166;7.312;2023-01-28T18:25:01;3.80;96.90
2873;DHT22;1444;49.166;7.312;2023-01-28T18:29:54;3.90;96.70
2873;DHT22;1444;49.166;7.312;2023-01-28T18:32:22;3.90;96.80
2873;DHT22;1444;49.166;7.312;2023-01-28T18:34:49;3.80;96.50
2873;DHT22;1444;49.166;7.312;2023-01-28T18:37:15;3.60;96.30
2873;DHT22;1444;49.166;7.312;2023-01-28T18:39:42;3.70;96.60
2873;DHT22;1444;49.166;7.312;2023-01-28T18:42:10;3.60;96.70
2873;DHT22;1444;49.166;7.312;2023-01-28T18:44:37;3.60;96.90
2873;DHT22;1444;49.166;7.312;2023-01-28T18:47:04;3.60;96.80
2873;DHT22;1444;49.166;7.312;2023-01-28T18:49:31;3.60;96.70
2873;DHT22;1444;49.166;7.312;2023-01-28T18:59:20;3.70;96.70
2873;DHT22;1444;49.166;7.312;2023-01-28T19:09:10;3.60;96.70
2873;DHT22;1444;49.166;7.312;2023-01-28T19:11:40;7.10;98.50
2873;DHT22;1444;49.166;7.312;2023-01-28T19:14:08;3.60;97.10
2873;DHT22;1444;49.166;7.312;2023-01-28T19:16:36;3.60;96.70
2873;DHT22;1444;49.166;7.312;2023-01-28T19:19:03;3.70;96.90
2873;DHT22;1444;49.166;7.312;2023-01-28T19:21:30;3.70;97.00
2873;DHT22;1444;49.166;7.312;2023-01-28T19:23:59;3.70;96.80
2873;DHT22;1444;49.166;7.312;2023-01-28T19:26:28;3.60;96.90
2873;DHT22;1444;49.166;7.312;2023-01-28T19:28:55;3.60;97.00
2873;DHT22;1444;49.166;7.312;2023-01-28T19:31:22;3.50;96.80
2873;DHT22;1444;49.166;7.312;2023-01-28T19:33:54;3.50;96.80
2873;DHT22;1444;49.166;7.312;2023-01-28T19:46:13;3.20;96.60
2873;DHT22;1444;49.166;7.312;2023-01-28T19:48:40;3.10;96.60
2873;DHT22;1444;49.166;7.312;2023-01-28T19:51:09;3.00;96.70
2873;DHT22;1444;49.166;7.312;2023-01-28T19:53:37;3.10;97.10
2873;DHT22;1444;49.166;7.312;2023-01-28T20:01:03;3.30;96.80
2873;DHT22;1444;49.166;7.312;2023-01-28T20:03:30;3.30;96.70
2873;DHT22;1444;49.166;7.312;2023-01-28T20:05:59;3.20;96.20
2873;DHT22;1444;49.166;7.312;2023-01-28T20:08:27;3.20;96.30
2873;DHT22;1444;49.166;7.312;2023-01-28T20:11:01;3.20;96.40
2873;DHT22;1444;49.166;7.312;2023-01-28T20:15:56;3.20;96.60
2873;DHT22;1444;49.166;7.312;2023-01-28T20:18:23;3.20;96.70
2873;DHT22;1444;49.166;7.312;2023-01-28T20:20:51;3.20;96.70
2873;DHT22;1444;49.166;7.312;2023-01-28T20:23:18;3.20;96.60
2873;DHT22;1444;49.166;7.312;2023-01-28T20:25:49;3.20;96.60
2873;DHT22;1444;49.166;7.312;2023-01-28T20:28:16;3.20;96.70
2873;DHT22;1444;49.166;7.312;2023-01-28T20:43:00;3.10;96.60
2873;DHT22;1444;49.166;7.312;2023-01-28T20:52:49;3.00;96.00
2873;DHT22;1444;49.166;7.312;2023-01-28T20:55:15;3.00;96.00
2873;DHT22;1444;49.166;7.312;2023-01-28T20:57:42;3.00;95.90
2873;DHT22;1444;49.166;7.312;2023-01-28T21:00:11;3.00;95.90
2873;DHT22;1444;49.166;7.312;2023-01-28T21:02:38;2.90;95.70
2873;DHT22;1444;49.166;7.312;2023-01-28T21:05:08;2.90;95.50
2873;DHT22;1444;49.166;7.312;2023-01-28T21:07:34;2.80;95.30
2873;DHT22;1444;49.166;7.312;2023-01-28T21:10:01;2.80;95.20
2873;DHT22;1444;49.166;7.312;2023-01-28T21:12:28;2.80;95.30
2873;DHT22;1444;49.166;7.312;2023-01-28T21:14:55;2.80;95.30
2873;DHT22;1444;49.166;7.312;2023-01-28T21:17:23;2.70;95.20
2873;DHT22;1444;49.166;7.312;2023-01-28T21:19:50;2.70;95.20
2873;DHT22;1444;49.166;7.312;2023-01-28T21:22:16;2.70;95.30
2873;DHT22;1444;49.166;7.312;2023-01-28T21:24:44;2.70;95.20
2873;DHT22;1444;49.166;7.312;2023-01-28T21:27:13;2.70;95.30
2873;DHT22;1444;49.166;7.312;2023-01-28T21:29:39;2.70;95.40
2873;DHT22;1444;49.166;7.312;2023-01-28T21:34:35;2.80;95.50
2873;DHT22;1444;49.166;7.312;2023-01-28T21:51:45;2.60;95.20
2873;DHT22;1444;49.166;7.312;2023-01-28T21:54:14;2.60;95.30
2873;DHT22;1444;49.166;7.312;2023-01-28T21:59:09;2.60;95.20
2873;DHT22;1444;49.166;7.312;2023-01-28T22:01:55;2.60;95.40
2873;DHT22;1444;49.166;7.312;2023-01-28T22:04:23;2.60;95.10
2873;DHT22;1444;49.166;7.312;2023-01-28T22:11:51;2.60;94.30
2873;DHT22;1444;49.166;7.312;2023-01-28T22:14:18;2.50;94.00
2873;DHT22;1444;49.166;7.312;2023-01-28T22:16:45;2.50;94.30
2873;DHT22;1444;49.166;7.312;2023-01-28T22:21:40;2.50;94.50
2873;DHT22;1444;49.166;7.312;2023-01-28T22:29:04;2.60;94.20
2873;DHT22;1444;49.166;7.312;2023-01-28T22:31:32;2.70;94.30
2873;DHT22;1444;49.166;7.312;2023-01-28T22:33:59;2.70;94.30
2873;DHT22;1444;49.166;7.312;2023-01-28T22:36:25;2.70;94.10
2873;DHT22;1444;49.166;7.312;2023-01-28T22:38:52;2.70;94.10
2873;DHT22;1444;49.166;7.312;2023-01-28T22:41:20;5.50;95.50
2873;DHT22;1444;49.166;7.312;2023-01-28T22:43:48;2.70;94.30
2873;DHT22;1444;49.166;7.312;2023-01-28T22:46:16;4.40;95.10
2873;DHT22;1444;49.166;7.312;2023-01-28T22:48:43;2.60;94.60
2873;DHT22;1444;49.166;7.312;2023-01-28T22:51:14;2.70;95.00
2873;DHT22;1444;49.166;7.312;2023-01-28T22:53:41;2.60;94.00
2873;DHT22;1444;49.166;7.312;2023-01-28T22:56:07;2.70;94.50